createdAt,value
2023-04-23T00:01:59.291Z,23.17
2023-04-23T00:04:28.996Z,23.92
2023-04-23T00:06:58.515Z,22.45
2023-04-23T00:09:29.973Z,23.88
2023-04-23T00:11:58.182Z,23.93
2023-04-23T00:14:26.012Z,23.77
2023-04-23T00:16:55.093Z,23.60
2023-04-23T00:19:23.018Z,23.27
2023-04-23T00:21:50.672Z,23.63
2023-04-23T00:24:18.104Z,23.33
2023-04-23T00:26:45.690Z,23.10
2023-04-23T00:29:13.087Z,24.27
2023-04-23T00:31:40.587Z,24.38
2023-04-23T00:34:08.129Z,24.17
2023-04-23T00:36:35.708Z,23.88
2023-04-23T00:39:03.708Z,23.60
2023-04-23T00:41:31.998Z,22.42
2023-04-23T00:44:00.828Z,23.73
2023-04-23T00:46:28.568Z,22.38
2023-04-23T00:48:56.764Z,24.35
2023-04-23T00:51:24.588Z,23.73
2023-04-23T00:53:52.423Z,23.90
2023-04-23T00:56:23.952Z,23.88
2023-04-23T00:58:55.412Z,23.40
2023-04-23T01:01:23.584Z,24.43
2023-04-23T01:03:54.391Z,24.10
2023-04-23T01:06:25.151Z,23.20
2023-04-23T01:08:52.707Z,23.58
2023-04-23T01:11:20.477Z,23.58
2023-04-23T01:13:47.923Z,25.20
2023-04-23T01:16:15.377Z,23.85
2023-04-23T01:18:43.414Z,25.70
2023-04-23T01:21:12.452Z,24.58
2023-04-23T01:23:40.292Z,23.77
2023-04-23T01:26:07.791Z,24.88
2023-04-23T01:28:37.215Z,26.63
2023-04-23T01:31:05.045Z,25.17
2023-04-23T01:33:34.093Z,24.38
2023-04-23T01:36:03.017Z,23.35
2023-04-23T01:38:33.810Z,25.10
2023-04-23T01:41:02.343Z,24.95
2023-04-23T01:43:31.168Z,23.98
2023-04-23T01:45:59.577Z,25.95
2023-04-23T01:48:28.830Z,24.10
2023-04-23T01:50:56.610Z,25.33
2023-04-23T01:53:24.058Z,24.25
2023-04-23T01:55:52.482Z,25.95
2023-04-23T01:58:19.916Z,25.17
2023-04-23T02:00:47.359Z,24.48
2023-04-23T02:03:15.673Z,24.10
2023-04-23T02:05:43.447Z,24.77
2023-04-23T02:08:11.362Z,27.15
2023-04-23T02:10:38.752Z,24.42
2023-04-23T02:13:06.185Z,24.48
2023-04-23T02:15:34.102Z,23.92
2023-04-23T02:18:01.659Z,25.13
2023-04-23T02:20:29.185Z,24.92
2023-04-23T02:22:56.825Z,25.13
2023-04-23T02:25:24.263Z,22.65
2023-04-23T02:27:51.813Z,24.45
2023-04-23T02:30:19.257Z,23.27
2023-04-23T02:32:46.717Z,24.80
2023-04-23T02:35:14.181Z,26.48
2023-04-23T02:37:41.621Z,24.55
2023-04-23T02:40:09.702Z,22.83
2023-04-23T02:42:37.390Z,26.15
2023-04-23T02:45:06.805Z,24.17
2023-04-23T02:47:34.448Z,25.70
2023-04-23T02:50:05.819Z,24.45
2023-04-23T02:52:34.004Z,24.58
2023-04-23T02:55:04.316Z,24.92
2023-04-23T02:57:31.903Z,23.95
2023-04-23T02:59:59.328Z,22.85
2023-04-23T03:02:35.963Z,23.83
2023-04-23T03:05:04.939Z,21.65
2023-04-23T03:07:32.390Z,23.10
2023-04-23T03:09:59.784Z,25.95
2023-04-23T03:12:27.238Z,25.88
2023-04-23T03:14:54.634Z,24.75
2023-04-23T03:17:23.869Z,24.25
2023-04-23T03:19:51.629Z,24.30
2023-04-23T03:22:19.277Z,26.85
2023-04-23T03:24:46.744Z,26.15
2023-04-23T03:27:15.371Z,25.15
2023-04-23T03:29:42.802Z,27.13
2023-04-23T03:32:10.470Z,26.23
2023-04-23T03:34:37.874Z,27.75
2023-04-23T03:37:05.263Z,26.92
2023-04-23T03:39:34.735Z,29.10
2023-04-23T03:42:02.415Z,27.55
2023-04-23T03:44:31.444Z,28.40
2023-04-23T03:46:59.275Z,28.23
2023-04-23T03:49:27.585Z,28.98
2023-04-23T03:51:56.335Z,29.13
2023-04-23T03:54:25.878Z,29.20
2023-04-23T03:57:20.879Z,29.23
2023-04-23T04:00:11.815Z,28.38
2023-04-23T04:02:43.263Z,29.45
2023-04-23T04:05:11.486Z,30.23
2023-04-23T04:07:39.654Z,31.15
2023-04-23T04:10:07.858Z,31.05
2023-04-23T04:12:36.322Z,31.98
2023-04-23T04:15:04.708Z,29.83
2023-04-23T04:17:32.161Z,31.63
2023-04-23T04:19:59.544Z,31.10
2023-04-23T04:22:27.051Z,29.27
2023-04-23T04:24:54.696Z,32.65
2023-04-23T04:27:22.164Z,32.33
2023-04-23T04:29:49.626Z,32.38
2023-04-23T04:32:17.054Z,33.15
2023-04-23T04:34:44.533Z,30.90
2023-04-23T04:37:12.983Z,28.45
2023-04-23T04:39:40.733Z,30.45
2023-04-23T04:42:08.230Z,31.80
2023-04-23T04:44:37.582Z,28.15
2023-04-23T04:47:08.044Z,30.55
2023-04-23T04:49:36.137Z,29.52
2023-04-23T04:52:03.714Z,30.05
2023-04-23T04:54:31.175Z,30.63
2023-04-23T04:56:58.542Z,31.88
2023-04-23T04:59:26.004Z,31.98
2023-04-23T05:01:53.663Z,29.10
2023-04-23T05:04:21.166Z,29.20
2023-04-23T05:06:48.683Z,30.63
2023-04-23T05:09:16.685Z,30.17
2023-04-23T05:11:44.111Z,29.30
2023-04-23T05:14:11.511Z,29.77
2023-04-23T05:16:39.038Z,30.00
2023-04-23T05:19:06.598Z,30.65
2023-04-23T05:21:34.383Z,28.70
2023-04-23T05:24:01.787Z,28.83
2023-04-23T05:26:29.515Z,28.70
2023-04-23T05:28:57.295Z,50.35
2023-04-23T05:31:24.863Z,31.25
2023-04-23T05:33:53.291Z,27.58
2023-04-23T05:36:21.004Z,27.33
2023-04-23T05:38:48.717Z,25.98
2023-04-23T05:41:16.448Z,27.38
2023-04-23T05:43:44.148Z,28.80
2023-04-23T05:46:11.594Z,27.10
2023-04-23T05:48:39.064Z,26.13
2023-04-23T05:51:06.635Z,26.05
2023-04-23T05:53:34.042Z,25.60
2023-04-23T05:56:01.435Z,25.98
2023-04-23T05:58:28.903Z,25.60
2023-04-23T06:00:57.645Z,27.00
2023-04-23T06:03:25.642Z,26.23
2023-04-23T06:05:53.189Z,26.00
2023-04-23T06:08:20.581Z,25.00
2023-04-23T06:10:48.119Z,24.95
2023-04-23T06:13:16.077Z,23.35
2023-04-23T06:15:43.590Z,24.63
2023-04-23T06:18:11.225Z,24.92
2023-04-23T06:20:38.653Z,23.98
2023-04-23T06:23:06.622Z,23.35
2023-04-23T06:25:34.044Z,24.60
2023-04-23T06:28:01.454Z,25.55
2023-04-23T06:30:34.226Z,25.20
2023-04-23T06:33:02.511Z,25.40
2023-04-23T06:35:31.185Z,24.92
2023-04-23T06:37:58.815Z,25.55
2023-04-23T06:40:26.269Z,26.20
2023-04-23T06:42:53.699Z,27.00
2023-04-23T06:45:37.516Z,27.70
2023-04-23T06:48:05.104Z,26.38
2023-04-23T06:50:32.545Z,26.27
2023-04-23T06:52:59.928Z,25.92
2023-04-23T06:55:29.028Z,26.63
2023-04-23T06:57:57.952Z,27.08
2023-04-23T07:00:25.641Z,26.90
2023-04-23T07:02:53.239Z,26.83
2023-04-23T07:05:20.742Z,25.88
2023-04-23T07:07:48.120Z,24.35
2023-04-23T07:10:17.821Z,27.13
2023-04-23T07:12:45.647Z,26.38
2023-04-23T07:15:13.114Z,25.55
2023-04-23T07:17:40.558Z,24.35
2023-04-23T07:20:08.931Z,23.33
2023-04-23T07:22:36.339Z,24.15
2023-04-23T07:25:05.398Z,21.65
2023-04-23T07:27:32.836Z,22.63
2023-04-23T07:30:01.929Z,21.90
2023-04-23T07:32:29.444Z,22.65
2023-04-23T07:34:57.311Z,21.48
2023-04-23T07:37:24.839Z,21.50
2023-04-23T07:39:53.863Z,21.95
2023-04-23T07:42:21.373Z,24.35
2023-04-23T07:44:48.854Z,24.42
2023-04-23T07:47:16.405Z,21.52
2023-04-23T07:49:44.105Z,24.83
2023-04-23T07:52:11.820Z,22.30
2023-04-23T07:54:39.571Z,21.52
2023-04-23T07:57:07.032Z,20.50
2023-04-23T07:59:34.640Z,17.80
2023-04-23T08:02:02.368Z,19.75
2023-04-23T08:04:29.970Z,18.80
2023-04-23T08:06:57.556Z,19.83
2023-04-23T08:09:26.129Z,18.80
2023-04-23T08:11:55.192Z,19.23
2023-04-23T08:14:22.599Z,19.05
2023-04-23T08:16:50.051Z,19.42
2023-04-23T08:19:17.796Z,19.23
2023-04-23T08:21:45.245Z,19.30
2023-04-23T08:24:12.693Z,18.10
2023-04-23T08:26:40.313Z,17.83
2023-04-23T08:29:09.062Z,16.73
2023-04-23T08:31:37.868Z,17.50
2023-04-23T08:34:05.277Z,17.58
2023-04-23T08:36:32.806Z,16.00
2023-04-23T08:39:00.933Z,16.35
2023-04-23T08:41:35.078Z,16.05
2023-04-23T08:44:05.447Z,15.98
2023-04-23T08:46:36.890Z,17.02
2023-04-23T08:49:07.732Z,17.42
2023-04-23T08:51:40.427Z,19.42
2023-04-23T08:54:13.776Z,17.10
2023-04-23T08:56:42.145Z,17.98
2023-04-23T08:59:09.956Z,17.90
2023-04-23T09:01:37.778Z,16.38
2023-04-23T09:04:05.429Z,17.05
2023-04-23T09:06:33.141Z,22.42
2023-04-23T09:09:01.173Z,17.90
2023-04-23T09:11:30.270Z,18.73
2023-04-23T09:13:58.084Z,18.42
2023-04-23T09:16:26.699Z,17.83
2023-04-23T09:18:57.365Z,18.02
2023-04-23T09:21:25.026Z,18.02
2023-04-23T09:23:52.615Z,18.80
2023-04-23T09:26:22.287Z,18.52
2023-04-23T09:28:51.382Z,17.95
2023-04-23T09:31:24.164Z,18.48
2023-04-23T09:33:53.828Z,18.27
2023-04-23T09:36:23.745Z,17.25
2023-04-23T09:38:56.232Z,16.30
2023-04-23T09:41:28.516Z,17.33
2023-04-23T09:43:57.886Z,18.98
2023-04-23T09:46:41.002Z,16.13
2023-04-23T09:49:11.781Z,16.88
2023-04-23T09:51:42.797Z,15.00
2023-04-23T09:54:21.859Z,15.77
2023-04-23T09:56:51.604Z,15.35
2023-04-23T09:59:46.920Z,16.63
2023-04-23T10:02:18.896Z,16.15
2023-04-23T10:04:52.317Z,15.82
2023-04-23T10:07:27.432Z,15.77
2023-04-23T10:09:56.071Z,16.88
2023-04-23T10:12:41.028Z,16.67
2023-04-23T10:15:15.117Z,15.60
2023-04-23T10:17:42.917Z,17.35
2023-04-23T10:20:12.636Z,15.68
2023-04-23T10:22:44.332Z,14.88
2023-04-23T10:25:15.730Z,13.48
2023-04-23T10:27:54.043Z,15.02
2023-04-23T10:30:23.221Z,13.77
2023-04-23T10:32:51.715Z,12.85
2023-04-23T10:35:19.492Z,10.15
2023-04-23T10:37:48.572Z,11.45
2023-04-23T10:40:22.166Z,9.63
2023-04-23T10:42:50.524Z,10.63
2023-04-23T10:45:24.610Z,10.00
2023-04-23T10:47:56.470Z,8.98
2023-04-23T10:50:35.832Z,9.07
2023-04-23T10:53:04.018Z,9.02
2023-04-23T10:55:33.143Z,9.23
2023-04-23T10:58:06.220Z,8.68
2023-04-23T11:00:43.459Z,8.68
2023-04-23T11:03:37.992Z,9.07
2023-04-23T11:06:07.241Z,9.95
2023-04-23T11:08:38.265Z,8.70
2023-04-23T11:11:09.672Z,10.07
2023-04-23T11:13:50.749Z,9.00
2023-04-23T11:16:22.313Z,9.13
2023-04-23T11:19:05.257Z,8.50
2023-04-23T11:22:06.198Z,8.25
2023-04-23T11:24:34.134Z,8.55
2023-04-23T11:27:02.797Z,8.00
2023-04-23T11:29:30.639Z,9.43
2023-04-23T11:32:02.942Z,8.38
2023-04-23T11:34:33.188Z,6.80
2023-04-23T11:37:02.449Z,7.18
2023-04-23T11:39:30.044Z,7.93
2023-04-23T11:41:59.497Z,7.63
2023-04-23T11:44:28.205Z,7.93
2023-04-23T11:46:58.390Z,7.00
2023-04-23T11:49:26.377Z,7.38
2023-04-23T11:51:55.016Z,7.32
2023-04-23T11:54:27.617Z,6.55
2023-04-23T11:56:55.972Z,7.25
2023-04-23T11:59:24.035Z,6.68
2023-04-23T12:02:00.772Z,7.45
2023-04-23T12:04:31.005Z,8.77
2023-04-23T12:06:59.485Z,9.02
2023-04-23T12:09:29.375Z,8.80
2023-04-23T12:12:01.145Z,8.63
2023-04-23T12:14:30.814Z,8.13
2023-04-23T12:17:08.870Z,8.70
2023-04-23T12:19:36.567Z,8.82
2023-04-23T12:22:04.673Z,9.38
2023-04-23T12:24:46.624Z,8.93
2023-04-23T12:27:16.745Z,9.02
2023-04-23T12:29:51.237Z,10.07
2023-04-23T12:32:22.970Z,10.35
2023-04-23T12:34:57.252Z,8.70
2023-04-23T12:37:27.029Z,9.23
2023-04-23T12:39:56.684Z,9.77
2023-04-23T12:42:27.827Z,8.40
2023-04-23T12:44:56.314Z,8.82
2023-04-23T12:47:26.434Z,8.50
2023-04-23T12:49:55.658Z,8.30
2023-04-23T12:52:24.727Z,8.48
2023-04-23T12:54:56.436Z,9.52
2023-04-23T12:57:25.330Z,9.20
2023-04-23T12:59:55.320Z,9.82
2023-04-23T13:02:24.827Z,10.10
2023-04-23T13:04:54.553Z,10.57
2023-04-23T13:07:25.692Z,10.93
2023-04-23T13:09:53.552Z,9.90
2023-04-23T13:12:21.178Z,11.05
2023-04-23T13:14:49.252Z,10.13
2023-04-23T13:17:16.917Z,10.77
2023-04-23T13:19:45.021Z,10.25
2023-04-23T13:22:12.636Z,9.82
2023-04-23T13:24:40.158Z,10.05
2023-04-23T13:27:08.101Z,9.38
2023-04-23T13:29:35.579Z,9.82
2023-04-23T13:32:03.925Z,8.45
2023-04-23T13:34:31.496Z,7.68
2023-04-23T13:36:59.033Z,6.20
2023-04-23T13:39:26.659Z,6.78
2023-04-23T13:42:09.155Z,7.45
2023-04-23T13:44:37.196Z,8.65
2023-04-23T13:47:04.935Z,7.57
2023-04-23T13:49:32.756Z,7.20
2023-04-23T13:52:04.434Z,7.30
2023-04-23T13:54:32.369Z,6.43
2023-04-23T13:57:01.055Z,7.53
2023-04-23T13:59:28.687Z,8.68
2023-04-23T14:01:56.257Z,8.38
2023-04-23T14:04:24.293Z,7.07
2023-04-23T14:06:52.079Z,6.97
2023-04-23T14:09:19.588Z,7.40
2023-04-23T14:11:47.025Z,6.78
2023-04-23T14:14:14.633Z,6.72
2023-04-23T14:16:42.117Z,7.32
2023-04-23T14:19:09.685Z,7.32
2023-04-23T14:21:37.510Z,7.03
2023-04-23T14:24:27.871Z,6.28
2023-04-23T14:26:55.517Z,6.43
2023-04-23T14:29:22.961Z,5.65
2023-04-23T14:31:51.117Z,5.53
2023-04-23T14:34:18.654Z,5.38
2023-04-23T14:36:49.411Z,6.00
2023-04-23T14:39:17.377Z,5.68
2023-04-23T14:41:45.593Z,5.75
2023-04-23T14:44:13.219Z,5.60
2023-04-23T14:46:40.972Z,5.30
2023-04-23T14:49:08.900Z,5.50
2023-04-23T14:51:37.518Z,5.13
2023-04-23T14:54:05.501Z,5.47
2023-04-23T14:56:33.375Z,5.40
2023-04-23T14:59:01.641Z,4.70
2023-04-23T15:01:31.464Z,5.25
2023-04-23T15:03:59.732Z,5.00
2023-04-23T15:06:27.676Z,5.68
2023-04-23T15:08:55.385Z,5.18
2023-04-23T15:11:23.006Z,4.90
2023-04-23T15:14:06.532Z,5.07
2023-04-23T15:16:48.329Z,5.30
2023-04-23T15:19:20.193Z,5.22
2023-04-23T15:21:48.602Z,5.72
2023-04-23T15:24:16.993Z,5.57
2023-04-23T15:26:45.981Z,4.88
2023-04-23T15:29:14.052Z,4.65
2023-04-23T15:31:42.280Z,4.90
2023-04-23T15:34:11.704Z,5.55
2023-04-23T15:36:39.405Z,5.28
2023-04-23T15:39:08.697Z,4.72
2023-04-23T15:41:39.454Z,5.13
2023-04-23T15:44:11.867Z,5.35
2023-04-23T15:46:40.063Z,5.53
2023-04-23T15:49:13.031Z,4.57
2023-04-23T15:51:40.997Z,4.72
2023-04-23T15:54:09.755Z,5.03
2023-04-23T15:56:39.160Z,4.85
2023-04-23T15:59:07.345Z,5.07
2023-04-23T16:01:37.425Z,5.53
2023-04-23T16:04:10.189Z,5.30
2023-04-23T16:06:39.162Z,5.22
2023-04-23T16:09:08.287Z,4.25
2023-04-23T16:11:37.759Z,4.72
2023-04-23T16:14:05.970Z,4.53
2023-04-23T16:16:33.454Z,4.47
2023-04-23T16:19:02.951Z,5.53
2023-04-23T16:21:32.201Z,4.85
2023-04-23T16:23:59.837Z,4.57
2023-04-23T16:26:29.090Z,4.90
2023-04-23T16:29:16.551Z,4.32
2023-04-23T16:31:44.996Z,4.68
2023-04-23T16:34:12.652Z,4.43
2023-04-23T16:36:40.110Z,4.75
2023-04-23T16:39:07.617Z,5.22
2023-04-23T16:41:35.130Z,5.13
2023-04-23T16:44:02.624Z,4.40
2023-04-23T16:46:31.333Z,4.28
2023-04-23T16:48:59.577Z,5.25
2023-04-23T16:51:28.801Z,6.22
2023-04-23T16:53:59.459Z,4.93
2023-04-23T16:56:27.400Z,5.53
2023-04-23T16:58:55.287Z,4.55
2023-04-23T17:01:22.832Z,5.07
2023-04-23T17:03:51.044Z,4.80
2023-04-23T17:06:32.781Z,4.90
2023-04-23T17:09:01.936Z,5.20
2023-04-23T17:11:30.447Z,5.57
2023-04-23T17:13:58.466Z,5.45
2023-04-23T17:16:29.096Z,5.20
2023-04-23T17:18:57.152Z,5.60
2023-04-23T17:21:25.919Z,6.45
2023-04-23T17:23:53.366Z,38.25
2023-04-23T17:26:20.867Z,9.07
2023-04-23T17:28:48.412Z,8.90
2023-04-23T17:31:16.333Z,8.57
2023-04-23T17:33:45.569Z,9.45
2023-04-23T17:36:13.151Z,9.40
2023-04-23T17:38:41.356Z,9.23
2023-04-23T17:41:08.807Z,10.45
2023-04-23T17:43:36.551Z,10.65
2023-04-23T17:46:04.382Z,11.20
2023-04-23T17:48:32.146Z,11.43
2023-04-23T17:50:59.704Z,12.20
2023-04-23T17:53:27.254Z,11.65
2023-04-23T17:55:59.427Z,11.70
2023-04-23T17:58:27.029Z,12.00
2023-04-23T18:00:54.986Z,12.05
2023-04-23T18:03:23.504Z,12.02
2023-04-23T18:05:51.564Z,11.85
2023-04-23T18:08:20.925Z,12.30
2023-04-23T18:10:48.513Z,13.35
2023-04-23T18:13:16.365Z,15.10
2023-04-23T18:15:45.839Z,12.98
2023-04-23T18:18:13.297Z,12.80
2023-04-23T18:20:40.928Z,13.25
2023-04-23T18:23:08.850Z,14.90
2023-04-23T18:25:36.836Z,12.00
2023-04-23T18:28:04.505Z,12.80
2023-04-23T18:30:32.003Z,12.45
2023-04-23T18:33:25.857Z,12.68
2023-04-23T18:35:59.291Z,13.02
2023-04-23T18:38:45.638Z,13.05
2023-04-23T18:41:13.141Z,13.05
2023-04-23T18:43:40.717Z,12.27
2023-04-23T18:46:08.339Z,12.38
2023-04-23T18:48:35.855Z,11.30
2023-04-23T18:51:33.299Z,11.20
2023-04-23T18:54:01.770Z,11.32
2023-04-23T18:56:29.328Z,10.90
2023-04-23T18:58:56.832Z,11.25
2023-04-23T19:01:28.110Z,11.75
2023-04-23T19:03:57.224Z,10.85
2023-04-23T19:06:25.053Z,11.25
2023-04-23T19:08:52.554Z,10.70
2023-04-23T19:11:20.307Z,11.38
2023-04-23T19:13:47.843Z,11.10
2023-04-23T19:16:18.217Z,11.38
2023-04-23T19:18:45.903Z,11.32
2023-04-23T19:21:13.446Z,12.65
2023-04-23T19:23:41.130Z,12.32
2023-04-23T19:26:09.475Z,11.02
2023-04-23T19:28:36.957Z,10.95
2023-04-23T19:31:04.775Z,11.98
2023-04-23T19:33:32.261Z,13.13
2023-04-23T19:35:59.741Z,11.18
2023-04-23T19:38:27.371Z,11.43
2023-04-23T19:40:55.042Z,11.38
2023-04-23T19:43:22.514Z,11.70
2023-04-23T19:45:49.954Z,11.45
2023-04-23T19:48:17.411Z,11.48
2023-04-23T19:50:44.956Z,12.02
2023-04-23T19:53:12.471Z,11.73
2023-04-23T19:55:39.957Z,12.20
2023-04-23T19:58:07.359Z,12.68
2023-04-23T20:00:40.027Z,11.73
2023-04-23T20:03:08.759Z,11.82
2023-04-23T20:05:37.411Z,12.52
2023-04-23T20:08:11.297Z,10.18
2023-04-23T20:10:38.866Z,14.02
2023-04-23T20:13:06.235Z,13.25
2023-04-23T20:15:33.625Z,12.55
2023-04-23T20:18:01.186Z,11.57
2023-04-23T20:20:28.610Z,13.35
2023-04-23T20:22:56.073Z,12.25
2023-04-23T20:25:25.582Z,11.73
2023-04-23T20:27:55.670Z,13.07
2023-04-23T20:30:23.214Z,11.77
2023-04-23T20:32:50.702Z,10.93
2023-04-23T20:35:18.210Z,11.80
2023-04-23T20:37:45.936Z,12.25
2023-04-23T20:40:14.644Z,11.65
2023-04-23T20:42:42.433Z,13.20
2023-04-23T20:45:14.730Z,11.80
2023-04-23T20:47:42.151Z,11.60
2023-04-23T20:50:09.874Z,12.38
2023-04-23T20:52:37.309Z,10.27
2023-04-23T20:55:04.946Z,10.27
2023-04-23T20:57:32.607Z,10.63
2023-04-23T20:59:59.981Z,10.00
2023-04-23T21:02:27.523Z,10.55
2023-04-23T21:04:55.156Z,9.32
2023-04-23T21:07:22.536Z,9.65
2023-04-23T21:09:49.910Z,9.10
2023-04-23T21:12:17.380Z,9.48
2023-04-23T21:14:44.880Z,9.70
2023-04-23T21:17:12.343Z,9.82
2023-04-23T21:19:39.971Z,8.73
2023-04-23T21:22:07.724Z,9.98
2023-04-23T21:24:35.090Z,10.10
2023-04-23T21:27:03.817Z,9.68
2023-04-23T21:29:31.904Z,9.52
2023-04-23T21:31:59.355Z,10.27
2023-04-23T21:34:27.462Z,9.75
2023-04-23T21:36:54.953Z,10.02
2023-04-23T21:39:22.389Z,10.18
2023-04-23T21:41:50.211Z,12.25
2023-04-23T21:44:17.634Z,11.40
2023-04-23T21:46:45.911Z,13.15
2023-04-23T21:49:13.398Z,11.82
2023-04-23T21:51:41.153Z,12.60
2023-04-23T21:54:09.232Z,12.73
2023-04-23T21:56:37.208Z,12.70
2023-04-23T21:59:04.744Z,12.07
2023-04-23T22:01:34.264Z,13.10
2023-04-23T22:04:04.624Z,12.65
2023-04-23T22:06:34.548Z,13.40
2023-04-23T22:09:03.173Z,14.13
2023-04-23T22:11:31.427Z,13.13
2023-04-23T22:14:00.256Z,14.68
2023-04-23T22:16:29.154Z,13.55
2023-04-23T22:18:57.675Z,14.20
2023-04-23T22:21:25.373Z,13.95
2023-04-23T22:23:52.910Z,14.35
2023-04-23T22:26:21.150Z,13.38
2023-04-23T22:28:48.550Z,14.48
2023-04-23T22:31:16.093Z,14.88
2023-04-23T22:33:43.546Z,15.57
2023-04-23T22:36:11.435Z,17.30
2023-04-23T22:38:38.854Z,15.13
2023-04-23T22:41:06.850Z,15.40
2023-04-23T22:43:34.208Z,15.73
2023-04-23T22:46:01.747Z,16.23
2023-04-23T22:48:29.269Z,15.93
2023-04-23T22:50:57.573Z,15.70
2023-04-23T22:53:25.271Z,15.07
2023-04-23T22:55:52.849Z,15.48
2023-04-23T22:58:20.601Z,16.42
2023-04-23T23:00:48.002Z,15.95
2023-04-23T23:03:15.848Z,16.70
2023-04-23T23:05:43.433Z,15.85
2023-04-23T23:08:11.656Z,14.98
2023-04-23T23:10:39.136Z,14.90
2023-04-23T23:13:06.502Z,14.18
2023-04-23T23:15:34.117Z,14.02
2023-04-23T23:18:02.059Z,13.90
2023-04-23T23:20:29.554Z,13.70
2023-04-23T23:22:56.965Z,12.95
2023-04-23T23:25:24.387Z,11.25
2023-04-23T23:27:51.809Z,11.75
2023-04-23T23:30:19.258Z,10.93
2023-04-23T23:32:46.678Z,13.07
2023-04-23T23:35:14.122Z,11.38
2023-04-23T23:37:41.484Z,11.52
2023-04-23T23:40:09.954Z,11.75
2023-04-23T23:42:37.312Z,10.95
2023-04-23T23:45:05.184Z,11.02
2023-04-23T23:47:32.613Z,10.52
2023-04-23T23:50:00.004Z,12.00
2023-04-23T23:52:27.479Z,9.85
2023-04-23T23:54:54.914Z,9.85
2023-04-23T23:57:22.298Z,10.27
2023-04-23T23:59:49.679Z,10.13
